createdAt,value
2023-02-27T00:00:02.089Z,2.0
2023-02-27T00:01:02.682Z,1.9
2023-02-27T00:02:03.278Z,2.3
2023-02-27T00:03:03.873Z,1.8
2023-02-27T00:04:04.539Z,1.8
2023-02-27T00:05:05.145Z,2.0
2023-02-27T00:06:05.749Z,2.1
2023-02-27T00:07:06.342Z,1.8
2023-02-27T00:08:06.932Z,2.6
2023-02-27T00:09:07.616Z,2.2
2023-02-27T00:10:08.187Z,1.9
2023-02-27T00:11:08.782Z,1.9
2023-02-27T00:12:09.387Z,2.3
2023-02-27T00:13:09.972Z,1.8
2023-02-27T00:14:10.567Z,1.9
2023-02-27T00:15:11.164Z,1.9
2023-02-27T00:16:12.957Z,2.0
2023-02-27T00:17:13.354Z,2.1
2023-02-27T00:18:13.950Z,2.0
2023-02-27T00:19:14.566Z,2.1
2023-02-27T00:20:15.176Z,2.1
2023-02-27T00:21:15.766Z,1.7
2023-02-27T00:22:16.363Z,2.1
2023-02-27T00:23:16.976Z,1.8
2023-02-27T00:24:17.590Z,2.1
2023-02-27T00:25:18.184Z,2.3
2023-02-27T00:26:18.774Z,2.1
2023-02-27T00:27:19.391Z,2.3
2023-02-27T00:28:19.976Z,2.2
2023-02-27T00:29:20.589Z,2.6
2023-02-27T00:30:21.185Z,2.6
2023-02-27T00:31:21.883Z,2.3
2023-02-27T00:32:22.445Z,2.6
2023-02-27T00:33:23.023Z,2.2
2023-02-27T00:34:23.614Z,2.2
2023-02-27T00:35:24.214Z,2.2
2023-02-27T00:36:24.825Z,2.0
2023-02-27T00:37:25.430Z,2.5
2023-02-27T00:38:26.021Z,2.4
2023-02-27T00:39:26.615Z,2.4
2023-02-27T00:40:27.204Z,2.1
2023-02-27T00:41:28.132Z,2.2
2023-02-27T00:42:28.811Z,2.3
2023-02-27T00:43:29.410Z,2.3
2023-02-27T00:44:30.020Z,2.2
2023-02-27T00:45:30.630Z,1.8
2023-02-27T00:46:31.255Z,2.6
2023-02-27T00:47:31.820Z,1.8
2023-02-27T00:48:32.405Z,2.6
2023-02-27T00:49:32.998Z,2.3
2023-02-27T00:50:33.592Z,2.0
2023-02-27T00:51:34.183Z,2.4
2023-02-27T00:52:34.774Z,2.3
2023-02-27T00:53:35.387Z,2.6
2023-02-27T00:54:35.977Z,2.6
2023-02-27T00:55:36.570Z,2.4
2023-02-27T00:56:37.181Z,2.5
2023-02-27T00:57:37.819Z,2.2
2023-02-27T00:58:38.367Z,2.2
2023-02-27T00:59:38.968Z,2.4
2023-02-27T01:00:39.578Z,2.4
2023-02-27T01:01:40.165Z,2.4
2023-02-27T01:02:40.766Z,2.6
2023-02-27T01:03:41.365Z,2.4
2023-02-27T01:04:41.944Z,2.6
2023-02-27T01:05:42.544Z,2.3
2023-02-27T01:06:43.131Z,2.1
2023-02-27T01:07:43.721Z,2.7
2023-02-27T01:08:44.315Z,2.5
2023-02-27T01:09:44.914Z,2.0
2023-02-27T01:10:45.514Z,2.5
2023-02-27T01:11:46.121Z,2.3
2023-02-27T01:12:46.710Z,2.4
2023-02-27T01:13:47.305Z,2.2
2023-02-27T01:14:47.896Z,2.3
2023-02-27T01:15:48.489Z,2.2
2023-02-27T01:16:49.083Z,2.4
2023-02-27T01:17:49.680Z,2.2
2023-02-27T01:18:50.272Z,2.4
2023-02-27T01:19:50.862Z,2.3
2023-02-27T01:20:51.453Z,2.3
2023-02-27T01:21:52.062Z,2.3
2023-02-27T01:22:52.643Z,2.3
2023-02-27T01:23:53.236Z,2.6
2023-02-27T01:24:53.829Z,2.0
2023-02-27T01:25:54.423Z,2.1
2023-02-27T01:26:55.021Z,2.2
2023-02-27T01:27:55.632Z,2.4
2023-02-27T01:28:56.221Z,2.1
2023-02-27T01:29:56.813Z,2.5
2023-02-27T01:30:57.456Z,2.2
2023-02-27T01:31:58.119Z,2.5
2023-02-27T01:32:58.614Z,2.3
2023-02-27T01:33:59.214Z,2.4
2023-02-27T01:34:59.804Z,2.3
2023-02-27T01:36:00.398Z,2.2
2023-02-27T01:37:01.014Z,2.1
2023-02-27T01:38:01.607Z,1.9
2023-02-27T01:39:02.213Z,2.3
2023-02-27T01:40:02.790Z,2.2
2023-02-27T01:41:03.382Z,2.2
2023-02-27T01:42:03.977Z,2.5
2023-02-27T01:43:04.570Z,2.0
2023-02-27T01:44:05.166Z,2.3
2023-02-27T01:45:05.757Z,2.2
2023-02-27T01:46:06.428Z,2.4
2023-02-27T01:47:06.995Z,2.3
2023-02-27T01:48:07.583Z,2.9
2023-02-27T01:49:08.182Z,1.9
2023-02-27T01:50:08.796Z,2.4
2023-02-27T01:51:09.384Z,2.4
2023-02-27T01:52:09.975Z,2.6
2023-02-27T01:53:10.570Z,2.5
2023-02-27T01:54:11.159Z,2.2
2023-02-27T01:55:11.757Z,2.2
2023-02-27T01:56:12.370Z,2.3
2023-02-27T01:57:12.990Z,2.3
2023-02-27T01:58:13.572Z,2.6
2023-02-27T01:59:14.183Z,2.7
2023-02-27T02:00:14.780Z,2.4
2023-02-27T02:01:15.444Z,2.4
2023-02-27T02:02:16.021Z,2.5
2023-02-27T02:03:16.616Z,2.4
2023-02-27T02:04:17.230Z,2.3
2023-02-27T02:05:17.823Z,2.4
2023-02-27T02:06:18.417Z,3.1
2023-02-27T02:07:19.009Z,2.5
2023-02-27T02:08:19.603Z,2.5
2023-02-27T02:09:20.220Z,2.6
2023-02-27T02:10:20.790Z,2.5
2023-02-27T02:11:21.385Z,3.0
2023-02-27T02:12:21.999Z,2.3
2023-02-27T02:13:22.596Z,3.0
2023-02-27T02:14:23.181Z,2.4
2023-02-27T02:15:23.788Z,2.4
2023-02-27T02:16:24.405Z,2.5
2023-02-27T02:17:24.956Z,2.1
2023-02-27T02:18:25.552Z,2.5
2023-02-27T02:19:26.143Z,2.2
2023-02-27T02:20:26.762Z,2.1
2023-02-27T02:21:27.583Z,2.2
2023-02-27T02:22:28.269Z,2.3
2023-02-27T02:23:28.865Z,2.5
2023-02-27T02:24:29.454Z,2.5
2023-02-27T02:25:30.067Z,2.2
2023-02-27T02:26:33.264Z,1.8
2023-02-27T02:27:32.247Z,1.9
2023-02-27T02:28:32.844Z,2.3
2023-02-27T02:29:33.430Z,2.2
2023-02-27T02:30:34.104Z,2.0
2023-02-27T02:31:34.827Z,2.3
2023-02-27T02:32:35.403Z,2.1
2023-02-27T02:33:35.991Z,2.0
2023-02-27T02:34:36.582Z,1.7
2023-02-27T02:35:37.175Z,2.2
2023-02-27T02:36:37.773Z,2.0
2023-02-27T02:37:38.359Z,2.1
2023-02-27T02:38:38.955Z,1.9
2023-02-27T02:39:39.545Z,1.9
2023-02-27T02:40:40.138Z,1.8
2023-02-27T02:41:40.736Z,2.1
2023-02-27T02:42:41.327Z,2.2
2023-02-27T02:43:41.919Z,1.9
2023-02-27T02:44:42.533Z,2.1
2023-02-27T02:48:09.820Z,1.7
2023-02-27T02:49:10.432Z,2.0
2023-02-27T02:50:11.028Z,2.1
2023-02-27T02:51:11.617Z,2.0
2023-02-27T02:52:12.212Z,2.0
2023-02-27T02:53:12.814Z,2.5
2023-02-27T02:54:13.394Z,2.4
2023-02-27T02:55:13.990Z,1.9
2023-02-27T02:56:14.601Z,2.6
2023-02-27T02:57:15.199Z,2.0
2023-02-27T02:58:15.816Z,2.1
2023-02-27T02:59:16.401Z,2.0
2023-02-27T03:00:16.988Z,1.8
2023-02-27T03:01:17.678Z,2.2
2023-02-27T03:02:18.216Z,1.8
2023-02-27T03:03:18.805Z,1.8
2023-02-27T03:04:19.421Z,2.0
2023-02-27T03:05:19.987Z,2.8
2023-02-27T03:06:20.578Z,3.4
2023-02-27T03:07:21.249Z,3.4
2023-02-27T03:08:21.833Z,3.2
2023-02-27T03:09:22.444Z,3.2
2023-02-27T03:10:23.036Z,2.9
2023-02-27T03:11:23.628Z,3.3
2023-02-27T03:12:24.226Z,2.9
2023-02-27T03:13:24.818Z,2.8
2023-02-27T03:14:25.413Z,2.2
2023-02-27T03:15:26.006Z,2.6
2023-02-27T03:16:26.593Z,2.9
2023-02-27T03:17:27.191Z,2.1
2023-02-27T03:18:27.779Z,1.9
2023-02-27T03:19:28.370Z,2.3
2023-02-27T03:20:28.963Z,2.0
2023-02-27T03:21:29.623Z,2.5
2023-02-27T03:22:30.158Z,2.0
2023-02-27T03:23:30.768Z,2.2
2023-02-27T03:24:31.361Z,2.1
2023-02-27T03:25:31.950Z,2.2
2023-02-27T03:26:32.543Z,1.8
2023-02-27T03:27:33.133Z,2.1
2023-02-27T03:28:33.726Z,2.2
2023-02-27T03:29:34.318Z,2.5
2023-02-27T03:30:34.945Z,2.4
2023-02-27T03:31:35.629Z,3.0
2023-02-27T03:32:36.338Z,2.8
2023-02-27T03:33:36.933Z,2.3
2023-02-27T03:34:37.523Z,2.7
2023-02-27T03:35:38.139Z,3.0
2023-02-27T03:36:38.734Z,2.5
2023-02-27T03:37:39.329Z,2.6
2023-02-27T03:38:39.921Z,2.5
2023-02-27T03:39:40.516Z,2.1
2023-02-27T03:40:41.123Z,2.9
2023-02-27T03:41:41.718Z,2.6
2023-02-27T03:42:42.329Z,3.4
2023-02-27T03:43:42.925Z,3.2
2023-02-27T03:44:43.544Z,2.9
2023-02-27T03:45:44.114Z,3.7
2023-02-27T03:46:44.772Z,3.3
2023-02-27T03:47:45.319Z,2.6
2023-02-27T03:48:45.918Z,3.1
2023-02-27T03:49:46.535Z,3.7
2023-02-27T03:50:47.128Z,3.0
2023-02-27T03:51:47.708Z,2.5
2023-02-27T03:52:48.299Z,2.6
2023-02-27T03:53:48.894Z,2.6
2023-02-27T03:54:49.501Z,2.9
2023-02-27T03:55:50.076Z,3.3
2023-02-27T03:56:50.669Z,3.5
2023-02-27T03:57:51.272Z,3.3
2023-02-27T03:58:51.852Z,3.4
2023-02-27T03:59:52.459Z,3.4
2023-02-27T04:00:53.037Z,3.0
2023-02-27T04:01:53.691Z,2.9
2023-02-27T04:02:54.294Z,3.1
2023-02-27T04:03:54.850Z,3.5
2023-02-27T04:04:55.456Z,3.4
2023-02-27T04:05:56.050Z,4.2
2023-02-27T04:06:56.641Z,3.3
2023-02-27T04:07:57.237Z,3.4
2023-02-27T04:08:57.821Z,3.2
2023-02-27T04:09:58.419Z,3.6
2023-02-27T04:10:59.027Z,3.7
2023-02-27T04:11:59.621Z,3.4
2023-02-27T04:13:00.211Z,3.8
2023-02-27T04:14:00.804Z,3.3
2023-02-27T04:15:01.393Z,3.5
2023-02-27T04:16:02.023Z,3.2
2023-02-27T04:17:02.599Z,3.8
2023-02-27T04:18:03.191Z,3.8
2023-02-27T04:19:03.782Z,2.9
2023-02-27T04:20:04.378Z,3.0
2023-02-27T04:21:04.990Z,3.6
2023-02-27T04:22:05.583Z,2.9
2023-02-27T04:23:06.178Z,3.1
2023-02-27T04:24:06.771Z,3.4
2023-02-27T04:25:07.366Z,3.5
2023-02-27T04:26:07.958Z,3.7
2023-02-27T04:27:08.564Z,3.8
2023-02-27T04:28:09.171Z,3.9
2023-02-27T04:29:09.753Z,3.4
2023-02-27T04:30:10.349Z,3.8
2023-02-27T04:31:11.100Z,2.9
2023-02-27T04:32:11.605Z,3.3
2023-02-27T04:33:12.193Z,3.5
2023-02-27T04:34:12.802Z,3.4
2023-02-27T04:35:13.416Z,3.4
2023-02-27T04:36:14.011Z,4.1
2023-02-27T04:37:14.603Z,4.1
2023-02-27T04:38:15.218Z,3.0
2023-02-27T04:39:15.806Z,2.8
2023-02-27T04:40:16.407Z,3.0
2023-02-27T04:41:16.998Z,3.0
2023-02-27T04:42:17.620Z,3.0
2023-02-27T04:43:18.218Z,2.7
2023-02-27T04:44:18.808Z,2.8
2023-02-27T04:45:19.402Z,3.0
2023-02-27T04:46:19.998Z,2.7
2023-02-27T04:47:20.608Z,2.5
2023-02-27T04:48:21.226Z,2.7
2023-02-27T04:49:21.831Z,3.4
2023-02-27T04:50:22.424Z,4.1
2023-02-27T04:51:23.044Z,4.9
2023-02-27T04:52:23.627Z,3.4
2023-02-27T04:53:24.256Z,4.7
2023-02-27T04:54:24.834Z,3.0
2023-02-27T04:55:25.446Z,2.9
2023-02-27T04:56:26.050Z,3.4
2023-02-27T04:57:26.631Z,2.8
2023-02-27T04:58:27.226Z,2.1
2023-02-27T04:59:27.838Z,2.6
2023-02-27T05:00:28.431Z,2.3
2023-02-27T05:01:29.333Z,2.5
2023-02-27T05:02:30.189Z,2.3
2023-02-27T05:03:30.691Z,2.7
2023-02-27T05:04:31.284Z,2.2
2023-02-27T05:05:31.876Z,2.2
2023-02-27T05:06:32.470Z,2.3
2023-02-27T05:07:33.068Z,2.7
2023-02-27T05:08:33.674Z,2.1
2023-02-27T05:09:34.287Z,2.6
2023-02-27T05:10:34.894Z,2.5
2023-02-27T05:11:35.472Z,2.4
2023-02-27T05:12:36.087Z,2.8
2023-02-27T05:13:36.674Z,2.6
2023-02-27T05:14:37.285Z,2.4
2023-02-27T05:15:37.919Z,2.5
2023-02-27T05:16:38.621Z,2.2
2023-02-27T05:17:39.197Z,2.4
2023-02-27T05:18:39.790Z,2.5
2023-02-27T05:19:40.380Z,2.2
2023-02-27T05:20:40.971Z,2.3
2023-02-27T05:21:41.565Z,2.7
2023-02-27T05:22:42.184Z,2.4
2023-02-27T05:23:42.775Z,2.2
2023-02-27T05:24:43.375Z,2.2
2023-02-27T05:25:43.980Z,2.4
2023-02-27T05:26:44.572Z,2.9
2023-02-27T05:27:45.164Z,2.6
2023-02-27T05:28:45.755Z,2.5
2023-02-27T05:29:46.346Z,2.2
2023-02-27T05:30:46.962Z,2.2
2023-02-27T05:31:47.637Z,2.6
2023-02-27T05:32:48.165Z,2.0
2023-02-27T05:33:48.755Z,2.4
2023-02-27T05:34:49.344Z,2.4
2023-02-27T05:35:50.026Z,2.6
2023-02-27T05:36:50.572Z,2.2
2023-02-27T05:37:51.159Z,2.3
2023-02-27T05:38:51.742Z,3.6
2023-02-27T05:39:52.338Z,3.1
2023-02-27T05:40:52.927Z,4.3
2023-02-27T05:41:53.518Z,2.4
2023-02-27T05:42:54.112Z,3.2
2023-02-27T05:43:54.703Z,2.7
2023-02-27T05:44:55.296Z,2.5
2023-02-27T05:45:55.958Z,2.5
2023-02-27T05:46:56.514Z,2.6
2023-02-27T05:47:57.105Z,2.6
2023-02-27T05:48:57.702Z,2.8
2023-02-27T05:49:58.294Z,2.5
2023-02-27T05:50:58.886Z,2.5
2023-02-27T05:51:59.484Z,2.5
2023-02-27T05:53:00.094Z,2.8
2023-02-27T05:54:00.670Z,2.7
2023-02-27T05:55:01.266Z,3.0
2023-02-27T05:56:01.859Z,2.7
2023-02-27T05:57:02.455Z,2.4
2023-02-27T05:58:03.055Z,2.5
2023-02-27T05:59:03.661Z,2.6
2023-02-27T06:00:04.254Z,2.9
2023-02-27T06:01:04.849Z,2.9
2023-02-27T06:02:05.470Z,2.8
2023-02-27T06:03:06.073Z,3.3
2023-02-27T06:04:06.640Z,3.4
2023-02-27T06:05:07.235Z,3.1
2023-02-27T06:06:07.840Z,3.1
2023-02-27T06:07:08.702Z,3.7
2023-02-27T06:08:09.270Z,4.3
2023-02-27T06:09:09.864Z,3.5
2023-02-27T06:10:10.478Z,3.9
2023-02-27T06:11:11.080Z,3.7
2023-02-27T06:12:11.728Z,2.9
2023-02-27T06:13:12.313Z,3.4
2023-02-27T06:14:12.928Z,3.4
2023-02-27T06:15:13.524Z,3.1
2023-02-27T06:16:14.190Z,3.0
2023-02-27T06:17:14.764Z,3.7
2023-02-27T06:18:15.363Z,2.9
2023-02-27T06:19:15.954Z,2.9
2023-02-27T06:20:16.558Z,3.0
2023-02-27T06:21:17.148Z,3.4
2023-02-27T06:22:17.744Z,3.3
2023-02-27T06:23:18.355Z,3.0
2023-02-27T06:24:20.363Z,3.6
2023-02-27T06:25:20.551Z,2.8
2023-02-27T06:26:21.188Z,3.4
2023-02-27T06:27:21.829Z,3.5
2023-02-27T06:28:22.421Z,3.0
2023-02-27T06:29:23.020Z,3.3
2023-02-27T06:30:23.615Z,3.2
2023-02-27T06:31:24.211Z,3.6
2023-02-27T06:32:24.809Z,3.5
2023-02-27T06:33:25.404Z,3.9
2023-02-27T06:34:26.023Z,3.7
2023-02-27T06:35:26.619Z,3.2
2023-02-27T06:36:27.450Z,3.6
2023-02-27T06:37:28.174Z,3.6
2023-02-27T06:38:28.778Z,3.4
2023-02-27T06:39:29.368Z,4.1
2023-02-27T06:40:29.964Z,3.9
2023-02-27T06:41:30.566Z,3.4
2023-02-27T06:42:31.158Z,3.2
2023-02-27T06:43:31.757Z,3.5
2023-02-27T06:44:32.354Z,3.3
2023-02-27T06:45:32.953Z,3.1
2023-02-27T06:46:33.564Z,3.4
2023-02-27T06:47:34.146Z,3.5
2023-02-27T06:48:34.743Z,3.2
2023-02-27T06:49:35.341Z,3.4
2023-02-27T06:50:35.940Z,4.1
2023-02-27T06:51:36.538Z,3.7
2023-02-27T06:52:37.139Z,3.5
2023-02-27T06:53:37.851Z,3.7
2023-02-27T06:54:38.449Z,3.9
2023-02-27T06:55:39.079Z,4.0
2023-02-27T06:56:39.660Z,4.0
2023-02-27T06:57:40.277Z,3.9
2023-02-27T06:58:40.860Z,3.7
2023-02-27T06:59:41.485Z,3.7
2023-02-27T07:00:42.094Z,3.9
2023-02-27T07:01:42.731Z,3.4
2023-02-27T07:02:43.311Z,3.7
2023-02-27T07:03:43.910Z,3.0
2023-02-27T07:04:44.559Z,3.2
2023-02-27T07:05:45.121Z,3.5
2023-02-27T07:07:35.710Z,3.5
2023-02-27T07:07:47.310Z,3.2
2023-02-27T07:09:01.967Z,3.4
2023-02-27T07:09:48.535Z,3.0
2023-02-27T07:10:49.291Z,2.8
2023-02-27T07:11:49.849Z,2.7
2023-02-27T07:12:50.444Z,3.3
2023-02-27T07:13:51.041Z,3.1
2023-02-27T07:14:51.660Z,2.7
2023-02-27T07:15:52.386Z,2.5
2023-02-27T07:16:52.992Z,2.8
2023-02-27T07:17:53.605Z,3.0
2023-02-27T07:18:54.206Z,2.5
2023-02-27T07:19:54.804Z,2.4
2023-02-27T07:20:55.395Z,2.5
2023-02-27T07:21:56.003Z,2.8
2023-02-27T07:22:56.596Z,2.1
2023-02-27T07:23:57.193Z,2.5
2023-02-27T07:24:57.801Z,2.3
2023-02-27T07:25:58.389Z,2.4
2023-02-27T07:26:58.988Z,2.5
2023-02-27T07:27:59.595Z,2.8
2023-02-27T07:29:00.212Z,2.4
2023-02-27T07:30:00.820Z,2.4
2023-02-27T07:31:01.481Z,2.6
2023-02-27T07:32:02.058Z,2.4
2023-02-27T07:33:02.632Z,2.2
2023-02-27T07:34:03.231Z,2.6
2023-02-27T07:35:03.828Z,2.8
2023-02-27T07:36:04.449Z,3.3
2023-02-27T07:37:05.026Z,2.9
2023-02-27T07:38:05.623Z,3.2
2023-02-27T07:39:06.243Z,2.8
2023-02-27T07:40:06.838Z,2.5
2023-02-27T07:41:07.436Z,2.3
2023-02-27T07:42:08.033Z,2.4
2023-02-27T07:43:08.632Z,2.6
2023-02-27T07:44:09.253Z,3.2
2023-02-27T07:45:09.852Z,2.7
2023-02-27T07:46:10.461Z,2.4
2023-02-27T07:47:11.056Z,2.2
2023-02-27T07:48:11.647Z,2.7
2023-02-27T07:49:12.250Z,2.2
2023-02-27T07:50:12.847Z,2.5
2023-02-27T07:51:13.451Z,2.5
2023-02-27T07:52:14.043Z,2.8
2023-02-27T07:53:14.644Z,2.7
2023-02-27T07:54:15.245Z,2.2
2023-02-27T07:55:15.850Z,2.7
2023-02-27T07:56:16.446Z,2.8
2023-02-27T07:57:17.048Z,2.8
2023-02-27T07:58:17.644Z,2.7
2023-02-27T07:59:18.259Z,2.8
2023-02-27T08:00:18.861Z,2.7
2023-02-27T08:01:19.457Z,2.8
2023-02-27T08:02:20.118Z,2.5
2023-02-27T08:03:20.698Z,2.6
2023-02-27T08:04:21.313Z,2.9
2023-02-27T08:05:21.898Z,2.4
2023-02-27T08:06:22.496Z,2.5
2023-02-27T08:07:23.095Z,3.3
2023-02-27T08:08:23.693Z,3.3
2023-02-27T08:09:24.294Z,3.1
2023-02-27T08:10:24.897Z,3.0
2023-02-27T08:11:25.898Z,2.8
2023-02-27T08:12:26.653Z,3.4
2023-02-27T08:13:55.797Z,3.2
2023-02-27T08:14:28.845Z,3.0
2023-02-27T08:15:29.444Z,3.3
2023-02-27T08:16:30.443Z,3.3
2023-02-27T08:17:31.207Z,3.3
2023-02-27T08:18:32.969Z,3.5
2023-02-27T08:19:33.393Z,3.5
2023-02-27T08:20:34.013Z,3.5
2023-02-27T08:21:34.607Z,3.2
2023-02-27T08:22:35.204Z,3.5
2023-02-27T08:23:35.823Z,3.1
2023-02-27T08:24:36.408Z,2.9
2023-02-27T08:25:37.016Z,3.1
2023-02-27T08:26:37.606Z,3.4
2023-02-27T08:27:38.211Z,3.3
2023-02-27T08:28:38.826Z,3.2
2023-02-27T08:29:39.421Z,3.4
2023-02-27T08:30:40.028Z,3.5
2023-02-27T08:31:40.661Z,3.8
2023-02-27T08:32:41.233Z,3.7
2023-02-27T08:33:41.851Z,3.8
2023-02-27T08:34:42.451Z,3.4
2023-02-27T08:35:43.065Z,4.0
2023-02-27T08:36:43.649Z,3.7
2023-02-27T08:37:44.282Z,3.1
2023-02-27T08:38:44.867Z,3.6
2023-02-27T08:39:45.515Z,3.3
2023-02-27T08:40:46.093Z,3.7
2023-02-27T08:41:46.689Z,4.0
2023-02-27T08:42:47.292Z,3.9
2023-02-27T08:43:47.894Z,3.5
2023-02-27T08:44:48.513Z,3.4
2023-02-27T08:45:49.108Z,3.5
2023-02-27T08:46:49.686Z,3.4
2023-02-27T08:47:50.286Z,3.7
2023-02-27T08:48:50.887Z,3.6
2023-02-27T08:49:51.493Z,3.2
2023-02-27T08:50:52.091Z,3.4
2023-02-27T08:51:52.686Z,3.4
2023-02-27T08:52:53.280Z,3.5
2023-02-27T08:53:53.905Z,3.3
2023-02-27T08:54:54.479Z,3.4
2023-02-27T08:55:55.075Z,3.1
2023-02-27T08:56:55.693Z,3.2
2023-02-27T08:57:56.296Z,3.6
2023-02-27T08:58:56.908Z,3.2
2023-02-27T08:59:57.521Z,3.0
2023-02-27T09:00:58.127Z,3.2
2023-02-27T09:01:58.713Z,3.2
2023-02-27T09:02:59.358Z,3.4
2023-02-27T09:03:59.936Z,3.5
2023-02-27T09:05:00.534Z,3.0
2023-02-27T09:06:01.132Z,3.2
2023-02-27T09:07:01.733Z,3.0
2023-02-27T09:08:02.337Z,3.6
2023-02-27T09:09:02.952Z,3.6
2023-02-27T09:10:03.554Z,3.8
2023-02-27T09:11:04.152Z,3.5
2023-02-27T09:12:04.750Z,3.3
2023-02-27T09:13:05.370Z,3.1
2023-02-27T09:14:05.986Z,3.5
2023-02-27T09:15:06.587Z,4.0
2023-02-27T09:16:07.228Z,3.4
2023-02-27T09:17:07.812Z,3.9
2023-02-27T09:18:08.432Z,3.6
2023-02-27T09:19:09.059Z,4.3
2023-02-27T09:20:09.651Z,3.7
2023-02-27T09:21:10.261Z,3.6
2023-02-27T09:22:10.857Z,3.6
2023-02-27T09:23:11.460Z,3.9
2023-02-27T09:24:19.830Z,3.8
2023-02-27T09:25:13.646Z,3.4
2023-02-27T09:26:14.276Z,3.7
2023-02-27T09:27:14.865Z,3.5
2023-02-27T09:28:15.466Z,3.6
2023-02-27T09:29:16.088Z,3.6
2023-02-27T09:30:16.688Z,3.3
2023-02-27T09:31:17.338Z,4.0
2023-02-27T09:32:18.030Z,4.0
2023-02-27T09:33:18.598Z,3.7
2023-02-27T09:34:19.211Z,3.8
2023-02-27T09:35:19.808Z,3.5
2023-02-27T09:36:20.399Z,3.7
2023-02-27T09:37:21.029Z,3.8
2023-02-27T09:38:21.630Z,3.7
2023-02-27T09:39:22.251Z,3.5
2023-02-27T09:40:22.931Z,3.3
2023-02-27T09:41:23.561Z,3.9
2023-02-27T09:42:24.160Z,4.3
2023-02-27T09:43:24.817Z,3.9
2023-02-27T09:44:39.907Z,3.3
2023-02-27T09:45:26.964Z,3.6
2023-02-27T09:46:27.811Z,3.6
2023-02-27T09:47:28.599Z,3.8
2023-02-27T09:48:29.165Z,4.1
2023-02-27T09:49:29.766Z,3.2
2023-02-27T09:50:31.224Z,3.5
2023-02-27T09:51:32.041Z,3.5
2023-02-27T09:52:32.659Z,3.4
2023-02-27T09:53:33.273Z,3.4
2023-02-27T09:54:33.875Z,3.6
2023-02-27T09:55:34.510Z,3.4
2023-02-27T09:56:35.074Z,3.7
2023-02-27T09:57:35.683Z,3.6
2023-02-27T09:58:36.280Z,3.6
2023-02-27T09:59:36.879Z,3.3
2023-02-27T10:00:37.483Z,3.0
2023-02-27T10:01:38.075Z,3.2
2023-02-27T10:02:38.707Z,3.4
2023-02-27T10:03:39.304Z,3.5
2023-02-27T10:04:39.888Z,2.9
2023-02-27T10:05:40.491Z,3.2
2023-02-27T10:06:41.106Z,3.0
2023-02-27T10:07:41.726Z,2.9
2023-02-27T10:08:42.340Z,3.1
2023-02-27T10:09:42.948Z,2.7
2023-02-27T10:10:43.572Z,3.0
2023-02-27T10:11:44.227Z,3.5
2023-02-27T10:12:44.835Z,4.0
2023-02-27T10:13:45.433Z,2.9
2023-02-27T10:14:46.041Z,3.7
2023-02-27T10:15:46.655Z,3.4
2023-02-27T10:16:47.292Z,3.3
2023-02-27T10:17:47.853Z,3.3
2023-02-27T10:18:48.455Z,3.4
2023-02-27T10:19:49.072Z,3.6
2023-02-27T10:20:49.672Z,2.9
2023-02-27T10:21:50.290Z,3.5
2023-02-27T10:22:50.876Z,2.7
2023-02-27T10:23:51.473Z,3.0
2023-02-27T10:24:52.094Z,2.8
2023-02-27T10:25:52.692Z,3.1
2023-02-27T10:26:53.311Z,2.8
2023-02-27T10:27:53.910Z,3.3
2023-02-27T10:28:54.509Z,2.6
2023-02-27T10:29:55.130Z,2.7
2023-02-27T10:30:55.749Z,2.6
2023-02-27T10:31:56.377Z,2.9
2023-02-27T10:32:56.974Z,2.9
2023-02-27T10:33:57.577Z,2.6
2023-02-27T10:34:58.191Z,2.5
2023-02-27T10:36:00.728Z,2.3
2023-02-27T10:37:00.383Z,2.4
2023-02-27T10:38:00.989Z,2.4
2023-02-27T10:39:01.589Z,2.3
2023-02-27T10:40:02.181Z,1.9
2023-02-27T10:41:02.784Z,2.5
2023-02-27T10:42:03.385Z,2.0
2023-02-27T10:43:06.233Z,1.7
2023-02-27T10:44:04.601Z,1.9
2023-02-27T10:45:05.204Z,2.0
2023-02-27T10:46:05.829Z,2.2
2023-02-27T10:47:06.418Z,2.2
2023-02-27T10:48:07.019Z,2.3
2023-02-27T10:49:07.616Z,1.8
2023-02-27T10:50:08.215Z,1.7
2023-02-27T10:51:08.817Z,1.9
2023-02-27T10:52:09.433Z,2.1
2023-02-27T10:53:10.036Z,2.0
2023-02-27T10:54:10.658Z,1.8
2023-02-27T10:55:11.273Z,2.2
2023-02-27T10:56:11.870Z,2.1
2023-02-27T10:57:12.469Z,2.4
2023-02-27T10:58:13.068Z,2.1
2023-02-27T10:59:13.670Z,2.5
2023-02-27T11:00:14.270Z,2.4
2023-02-27T11:01:14.933Z,2.0
2023-02-27T11:02:15.488Z,1.9
2023-02-27T11:03:16.088Z,2.1
2023-02-27T11:04:16.693Z,1.5
2023-02-27T11:05:17.314Z,1.9
2023-02-27T11:06:17.910Z,1.9
2023-02-27T11:07:18.519Z,2.1
2023-02-27T11:08:19.108Z,2.0
2023-02-27T11:09:19.710Z,2.0
2023-02-27T11:10:20.327Z,2.3
2023-02-27T11:11:20.909Z,2.4
2023-02-27T11:12:21.522Z,1.7
2023-02-27T11:13:22.109Z,1.7
2023-02-27T11:14:22.713Z,2.1
2023-02-27T11:15:23.350Z,2.0
2023-02-27T11:16:23.949Z,1.8
2023-02-27T11:17:24.565Z,2.0
2023-02-27T11:18:25.168Z,1.7
2023-02-27T11:19:25.796Z,2.2
2023-02-27T11:20:26.385Z,2.1
2023-02-27T11:21:27.419Z,2.1
2023-02-27T11:22:28.251Z,1.5
2023-02-27T11:23:28.839Z,1.6
2023-02-27T11:24:29.504Z,1.8
2023-02-27T11:25:30.060Z,1.6
2023-02-27T11:26:30.678Z,1.6
2023-02-27T11:27:31.296Z,1.4
2023-02-27T11:28:31.898Z,1.4
2023-02-27T11:29:32.500Z,1.3
2023-02-27T11:30:33.102Z,1.4
2023-02-27T11:31:33.754Z,1.6
2023-02-27T11:32:34.315Z,1.5
2023-02-27T11:33:34.924Z,2.3
2023-02-27T11:34:35.516Z,1.5
2023-02-27T11:35:36.206Z,1.2
2023-02-27T11:36:36.785Z,1.6
2023-02-27T11:37:37.385Z,1.3
2023-02-27T11:38:37.991Z,1.4
2023-02-27T11:39:38.588Z,1.5
2023-02-27T11:40:39.184Z,1.4
2023-02-27T11:41:39.790Z,1.4
2023-02-27T11:42:40.388Z,1.8
2023-02-27T11:43:40.985Z,1.3
2023-02-27T11:44:50.232Z,1.4
2023-02-27T11:46:13.702Z,1.5
2023-02-27T11:46:48.298Z,1.5
2023-02-27T11:47:46.362Z,1.4
2023-02-27T11:48:46.971Z,1.4
2023-02-27T11:49:47.581Z,1.5
2023-02-27T11:50:48.184Z,1.5
2023-02-27T11:51:48.787Z,1.5
2023-02-27T11:52:49.378Z,1.5
2023-02-27T11:53:49.982Z,1.7
2023-02-27T11:54:50.579Z,1.5
2023-02-27T11:55:51.200Z,1.6
2023-02-27T11:56:51.818Z,1.9
2023-02-27T11:57:52.417Z,1.2
2023-02-27T11:58:53.018Z,1.3
2023-02-27T11:59:53.621Z,1.1
2023-02-27T12:00:54.220Z,1.2
2023-02-27T12:01:54.816Z,1.6
2023-02-27T12:02:55.560Z,1.4
2023-02-27T12:03:56.162Z,1.0
2023-02-27T12:04:56.741Z,1.3
2023-02-27T12:05:57.380Z,1.3
2023-02-27T12:06:57.946Z,2.1
2023-02-27T12:07:58.553Z,1.9
2023-02-27T12:08:59.168Z,1.5
2023-02-27T12:09:59.770Z,1.5
2023-02-27T12:11:13.204Z,1.6
2023-02-27T12:12:01.965Z,1.3
2023-02-27T12:13:02.562Z,1.1
2023-02-27T12:14:04.085Z,1.5
2023-02-27T12:15:03.808Z,1.3
2023-02-27T12:16:04.466Z,1.5
2023-02-27T12:17:05.016Z,1.5
2023-02-27T12:18:05.622Z,1.1
2023-02-27T12:19:06.214Z,1.3
2023-02-27T12:20:06.815Z,1.1
2023-02-27T12:21:07.432Z,1.0
2023-02-27T12:22:08.060Z,1.1
2023-02-27T12:23:08.681Z,1.4
2023-02-27T12:24:09.279Z,1.0
2023-02-27T12:25:09.879Z,1.0
2023-02-27T12:26:10.489Z,1.2
2023-02-27T12:27:11.080Z,1.0
2023-02-27T12:28:11.681Z,0.9
2023-02-27T12:29:12.291Z,1.1
2023-02-27T12:30:12.910Z,1.8
2023-02-27T12:31:13.546Z,1.3
2023-02-27T12:32:14.222Z,1.2
2023-02-27T12:33:14.788Z,1.0
2023-02-27T12:34:16.130Z,1.1
2023-02-27T12:35:16.732Z,1.2
2023-02-27T12:36:17.337Z,1.3
2023-02-27T12:37:17.933Z,1.5
2023-02-27T12:38:18.538Z,1.7
2023-02-27T12:39:19.138Z,1.3
2023-02-27T12:40:19.739Z,1.4
2023-02-27T12:41:20.340Z,1.4
2023-02-27T12:42:20.939Z,1.4
2023-02-27T12:43:21.569Z,1.8
2023-02-27T12:44:22.191Z,1.4
2023-02-27T12:45:22.800Z,1.3
2023-02-27T12:46:23.385Z,1.6
2023-02-27T12:47:23.998Z,1.5
2023-02-27T12:48:24.607Z,1.4
2023-02-27T12:49:25.210Z,1.7
2023-02-27T12:50:25.813Z,1.7
2023-02-27T12:51:26.673Z,2.0
2023-02-27T12:52:27.052Z,1.8
2023-02-27T12:53:27.655Z,1.7
2023-02-27T12:54:28.277Z,1.7
2023-02-27T12:55:28.876Z,1.9
2023-02-27T12:56:29.469Z,1.6
2023-02-27T12:57:30.078Z,1.6
2023-02-27T12:58:30.694Z,2.2
2023-02-27T12:59:31.335Z,2.0
2023-02-27T13:00:31.935Z,1.8
2023-02-27T13:01:32.622Z,2.0
2023-02-27T13:02:33.188Z,2.0
2023-02-27T13:03:33.810Z,1.6
2023-02-27T13:04:34.392Z,1.9
2023-02-27T13:05:35.062Z,2.1
2023-02-27T13:06:37.324Z,2.0
2023-02-27T13:07:37.242Z,2.0
2023-02-27T13:08:37.834Z,1.8
2023-02-27T13:09:38.436Z,2.0
2023-02-27T13:10:39.037Z,1.7
2023-02-27T13:11:39.636Z,1.8
2023-02-27T13:12:40.243Z,1.7
2023-02-27T13:13:40.844Z,1.5
2023-02-27T13:14:41.446Z,1.8
2023-02-27T13:15:42.050Z,1.8
2023-02-27T13:16:42.680Z,2.0
2023-02-27T13:17:43.242Z,1.6
2023-02-27T13:18:43.844Z,2.0
2023-02-27T13:19:44.459Z,1.7
2023-02-27T13:20:45.071Z,1.7
2023-02-27T13:21:45.667Z,1.9
2023-02-27T13:22:46.266Z,1.5
2023-02-27T13:23:46.885Z,1.9
2023-02-27T13:24:47.482Z,1.9
2023-02-27T13:25:48.091Z,1.9
2023-02-27T13:26:48.703Z,1.5
2023-02-27T13:27:49.303Z,1.4
2023-02-27T13:28:49.903Z,1.6
2023-02-27T13:29:50.502Z,1.5
2023-02-27T13:30:51.104Z,1.9
2023-02-27T13:31:51.814Z,1.6
2023-02-27T13:32:52.533Z,1.7
2023-02-27T13:33:53.101Z,1.4
2023-02-27T13:34:53.701Z,1.4
2023-02-27T13:35:54.327Z,1.7
2023-02-27T13:36:54.902Z,1.9
2023-02-27T13:37:55.502Z,1.7
2023-02-27T13:38:56.103Z,1.7
2023-02-27T13:39:56.701Z,2.1
2023-02-27T13:40:57.308Z,2.0
2023-02-27T13:41:57.915Z,2.0
2023-02-27T13:42:58.538Z,1.4
2023-02-27T13:43:59.141Z,1.8
2023-02-27T13:44:59.736Z,1.6
2023-02-27T13:46:00.375Z,2.1
2023-02-27T13:47:01.015Z,2.2
2023-02-27T13:48:01.570Z,1.4
2023-02-27T13:49:02.164Z,1.9
2023-02-27T13:50:02.777Z,1.9
2023-02-27T13:51:03.378Z,1.7
2023-02-27T13:52:03.992Z,1.5
2023-02-27T13:53:05.842Z,1.6
2023-02-27T13:54:06.173Z,1.7
2023-02-27T13:55:12.070Z,1.7
2023-02-27T13:56:08.365Z,1.7
2023-02-27T13:57:08.987Z,1.4